Time;durP1;ratioP1;P1;durP2;ratioP2;P2;SDS_P1;SDS_P2;PMS_P1;PMS_P2;Temp;Humidity;BMP_temperature;BMP_pressure;BME280_temperature;BME280_humidity;BME280_pressure;Samples;Min_cycle;Max_cycle;Signal;HPM_P1;HPM_P2
2023/11/06 00:04:06;;;;;;;1999.90;999.90;;;;;;;12.73;91.14;99207.66;10377653;28;20050;-65
2023/11/06 00:09:08;;;;;;;1999.90;999.90;;;;;;;13.19;90.70;99216.50;10376732;28;20404;-65
2023/11/06 00:14:11;;;;;;;1999.90;999.90;;;;;;;13.28;88.88;99215.66;10376076;28;20060;-65
2023/11/06 00:19:14;;;;;;;1999.90;999.90;;;;;;;13.44;87.36;99228.19;10377435;28;20058;-66
2023/11/06 00:24:16;;;;;;;1999.90;999.90;;;;;;;13.43;87.47;99233.59;10376701;28;20057;-65
2023/11/06 00:29:18;;;;;;;1999.90;999.90;;;;;;;13.19;88.89;99235.72;10375517;28;20077;-65
2023/11/06 00:34:21;;;;;;;1999.90;999.90;;;;;;;13.25;89.53;99239.59;10375814;28;20144;-65
2023/11/06 00:39:24;;;;;;;1999.90;999.90;;;;;;;13.15;90.03;99241.44;10375629;28;20077;-65
2023/11/06 00:44:26;;;;;;;1999.90;999.90;;;;;;;13.29;86.87;99248.84;10375667;28;20084;-65
2023/11/06 00:49:29;;;;;;;1999.90;999.90;;;;;;;13.56;85.78;99249.88;10375266;28;20121;-65
2023/11/06 00:54:31;;;;;;;1999.90;999.90;;;;;;;13.37;86.25;99258.69;10375078;28;20062;-66
2023/11/06 00:59:34;;;;;;;1999.90;999.90;;;;;;;13.25;88.06;99254.53;10375613;28;20046;-65
2023/11/06 01:04:36;;;;;;;1999.90;999.90;;;;;;;13.42;86.70;99271.41;10375028;28;20049;-65
2023/11/06 01:09:38;;;;;;;1999.90;999.90;;;;;;;13.44;84.50;99275.53;10357574;28;20493;-66
2023/11/06 01:14:41;;;;;;;1999.90;999.90;;;;;;;13.23;86.51;99286.22;10373453;28;20408;-66
2023/11/06 01:19:43;;;;;;;1999.90;999.90;;;;;;;13.17;86.51;99294.66;10375054;28;20049;-65
2023/11/06 01:24:46;;;;;;;1999.90;999.90;;;;;;;13.10;86.14;99299.66;10374952;28;20100;-65
2023/11/06 01:29:48;;;;;;;1999.90;999.90;;;;;;;13.05;87.57;99309.75;10373702;28;20042;-65
2023/11/06 01:34:50;;;;;;;1999.90;999.90;;;;;;;13.08;85.99;99316.50;10374790;28;20058;-65
2023/11/06 01:39:53;;;;;;;1999.90;999.90;;;;;;;13.16;85.67;99320.13;10356734;28;20042;-65
2023/11/06 01:44:57;;;;;;;1999.90;999.90;;;;;;;12.95;87.64;99316.81;10374644;28;20062;-65
2023/11/06 01:50:02;;;;;;;1999.90;999.90;;;;;;;13.02;86.98;99337.13;10374902;28;20100;-65
2023/11/06 01:55:05;;;;;;;1999.90;999.90;;;;;;;12.96;88.09;99342.94;10374107;28;20064;-65
2023/11/06 02:00:09;;;;;;;1999.90;999.90;;;;;;;12.72;90.46;99351.22;10373618;28;20056;-65
2023/11/06 02:05:12;;;;;;;1999.90;999.90;;;;;;;12.97;88.38;99344.59;10381341;22;20060;-65
2023/11/06 02:10:17;;;;;;;1999.90;999.90;;;;;;;13.19;87.51;99353.97;10374230;28;20049;-65
2023/11/06 02:15:20;;;;;;;1999.90;999.90;;;;;;;12.93;88.28;99353.72;10375863;28;20060;-65
2023/11/06 02:20:22;;;;;;;1999.90;999.90;;;;;;;13.08;89.63;99362.03;10381579;28;20125;-65
2023/11/06 02:25:25;;;;;;;1999.90;999.90;;;;;;;13.28;87.32;99360.22;10380366;28;20108;-66
2023/11/06 02:30:27;;;;;;;1999.90;999.90;;;;;;;13.07;87.45;99362.97;10380622;28;20152;-65
2023/11/06 02:35:29;;;;;;;1999.90;999.90;;;;;;;12.77;90.51;99377.91;10381156;28;20092;-65
2023/11/06 02:40:32;;;;;;;1999.90;999.90;;;;;;;13.13;89.84;99388.72;10380812;28;20052;-65
2023/11/06 02:45:34;;;;;;;1999.90;999.90;;;;;;;13.18;89.29;99385.69;10380756;28;20057;-66
2023/11/06 02:50:36;;;;;;;1999.90;999.90;;;;;;;13.36;87.77;99383.19;10379930;28;20497;-65
2023/11/06 02:55:39;;;;;;;1999.90;999.90;;;;;;;13.14;87.78;99397.41;10379710;28;20045;-65
2023/11/06 03:00:41;;;;;;;1999.90;999.90;;;;;;;12.93;90.74;99413.34;10379445;28;20493;-66
2023/11/06 03:05:44;;;;;;;1999.90;999.90;;;;;;;12.80;90.49;99417.03;10379710;28;20160;-65
2023/11/06 03:10:46;;;;;;;1999.90;999.90;;;;;;;12.96;90.92;99427.00;10361829;28;20401;-65
2023/11/06 03:15:49;;;;;;;1999.90;999.90;;;;;;;12.86;90.21;99436.69;10379536;28;20085;-65
2023/11/06 03:20:51;;;;;;;1999.90;999.90;;;;;;;12.70;90.30;99447.69;10378639;28;20054;-65
2023/11/06 03:25:53;;;;;;;1999.90;999.90;;;;;;;12.82;89.52;99465.00;10377416;28;20481;-65
2023/11/06 03:30:56;;;;;;;1999.90;999.90;;;;;;;13.07;87.62;99464.63;10378931;28;20042;-65
2023/11/06 03:36:04;;;;;;;1999.90;999.90;;;;;;;13.00;87.85;99457.28;10376875;28;20382;-65
2023/11/06 03:41:06;;;;;;;1999.90;999.90;;;;;;;13.06;85.97;99474.28;10377897;28;20424;-65
2023/11/06 03:46:09;;;;;;;1999.90;999.90;;;;;;;12.72;87.68;99479.06;10378351;28;20099;-65
2023/11/06 03:51:11;;;;;;;1999.90;999.90;;;;;;;12.86;87.90;99478.72;10378170;28;20050;-65
2023/11/06 03:56:14;;;;;;;1999.90;999.90;;;;;;;12.98;88.15;99489.94;10378002;28;20130;-65
2023/11/06 04:01:16;;;;;;;1999.90;999.90;;;;;;;12.86;86.22;99493.63;10376590;28;20053;-66
2023/11/06 04:06:19;;;;;;;1999.90;999.90;;;;;;;12.81;87.65;99501.94;10377428;28;20069;-65
2023/11/06 04:11:21;;;;;;;1999.90;999.90;;;;;;;12.51;90.00;99508.00;10376810;28;20565;-65
2023/11/06 04:16:24;;;;;;;1999.90;999.90;;;;;;;12.27;89.22;99498.66;10375918;28;20416;-65
2023/11/06 04:21:26;;;;;;;1999.90;999.90;;;;;;;12.40;89.73;99506.31;10359686;28;20128;-66
2023/11/06 04:26:29;;;;;;;1999.90;999.90;;;;;;;12.45;88.47;99512.00;10376766;28;20535;-65
2023/11/06 04:31:31;;;;;;;1999.90;999.90;;;;;;;12.90;86.35;99526.56;10376682;28;20050;-65
2023/11/06 04:36:33;;;;;;;1999.90;999.90;;;;;;;12.47;87.17;99515.31;10374225;28;20408;-65
2023/11/06 04:41:39;;;;;;;1999.90;999.90;;;;;;;12.59;88.39;99523.94;10376072;28;20125;-66
2023/11/06 04:46:41;;;;;;;1999.90;999.90;;;;;;;12.53;87.59;99535.81;10374994;28;20046;-65
2023/11/06 04:51:44;;;;;;;1999.90;999.90;;;;;;;12.90;86.04;99542.31;10375374;28;20473;-65
2023/11/06 04:56:49;;;;;;;1999.90;999.90;;;;;;;12.58;85.01;99552.00;10375806;28;20128;-65
2023/11/06 05:01:52;;;;;;;1999.90;999.90;;;;;;;12.37;86.84;99554.66;10375649;28;20088;-65
2023/11/06 05:06:55;;;;;;;1999.90;999.90;;;;;;;12.62;85.83;99548.16;10374906;28;20555;-65
2023/11/06 05:11:57;;;;;;;1999.90;999.90;;;;;;;12.67;85.16;99560.88;10375338;28;20061;-65
2023/11/06 05:17:00;;;;;;;1999.90;999.90;;;;;;;12.99;83.55;99575.66;10374584;28;20056;-65
2023/11/06 05:22:02;;;;;;;1999.90;999.90;;;;;;;13.04;83.86;99562.94;10373906;28;20053;-65
2023/11/06 05:27:05;;;;;;;1999.90;999.90;;;;;;;12.55;84.50;99567.19;10374326;28;20494;-65
2023/11/06 05:32:07;;;;;;;1999.90;999.90;;;;;;;12.54;85.26;99568.97;10356818;28;20507;-65
2023/11/06 05:37:14;;;;;;;1999.90;999.90;;;;;;;12.62;85.48;99581.44;10374789;28;20049;-66
2023/11/06 05:42:16;;;;;;;1999.90;999.90;;;;;;;12.49;86.45;99592.19;10374632;28;20046;-65
2023/11/06 05:47:19;;;;;;;1999.90;999.90;;;;;;;12.40;86.69;99593.75;10373404;28;20052;-65
2023/11/06 05:52:21;;;;;;;1999.90;999.90;;;;;;;12.46;86.85;99595.06;10381496;28;20488;-65
2023/11/06 05:57:24;;;;;;;1999.90;999.90;;;;;;;12.85;85.16;99600.50;10380820;28;20385;-65
2023/11/06 06:02:27;;;;;;;1999.90;999.90;;;;;;;12.82;86.78;99609.44;10382250;28;20053;-66
2023/11/06 06:07:29;;;;;;;1999.90;999.90;;;;;;;12.26;85.86;99621.16;10382021;28;20086;-66
2023/11/06 06:12:35;;;;;;;1999.90;999.90;;;;;;;12.62;87.28;99619.06;10382010;28;20121;-65
2023/11/06 06:17:38;;;;;;;1999.90;999.90;;;;;;;13.46;83.20;99625.06;10381404;28;20519;-66
2023/11/06 06:22:41;;;;;;;1999.90;999.90;;;;;;;12.63;85.38;99625.13;10382088;28;20252;-65
2023/11/06 06:27:43;;;;;;;1999.90;999.90;;;;;;;12.47;87.13;99638.69;10381327;28;20486;-65
2023/11/06 06:32:46;;;;;;;1999.90;999.90;;;;;;;12.97;83.96;99643.25;10379437;28;20045;-65
2023/11/06 06:37:49;;;;;;;1999.90;999.90;;;;;;;12.94;83.72;99646.97;10381102;28;20072;-66
2023/11/06 06:42:51;;;;;;;1999.90;999.90;;;;;;;13.20;84.98;99644.75;10380774;28;20128;-65
2023/11/06 06:47:53;;;;;;;1999.90;999.90;;;;;;;12.61;86.38;99643.63;10380046;28;20060;-66
2023/11/06 06:52:56;;;;;;;1999.90;999.90;;;;;;;12.84;87.78;99640.84;10380555;28;20073;-66
2023/11/06 06:57:59;;;;;;;1999.90;999.90;;;;;;;13.44;81.52;99645.41;10379677;28;20054;-65
2023/11/06 07:03:05;;;;;;;1999.90;999.90;;;;;;;13.25;81.66;99654.84;10379201;28;20053;-65
2023/11/06 07:08:08;;;;;;;1999.90;999.90;;;;;;;13.19;83.33;99674.59;10379175;28;20093;-65
2023/11/06 07:13:10;;;;;;;1999.90;999.90;;;;;;;13.29;81.18;99671.19;10379234;28;20057;-66
2023/11/06 07:18:13;;;;;;;1999.90;999.90;;;;;;;12.90;83.30;99676.28;10378871;28;20584;-65
2023/11/06 07:23:15;;;;;;;1999.90;999.90;;;;;;;13.56;79.88;99684.56;10379268;28;20084;-65
2023/11/06 07:28:17;;;;;;;1999.90;999.90;;;;;;;13.29;79.78;99698.28;10379172;28;20080;-66
2023/11/06 07:33:20;;;;;;;1999.90;999.90;;;;;;;13.26;80.56;99701.19;10378259;28;20042;-66
2023/11/06 07:38:22;;;;;;;1999.90;999.90;;;;;;;12.91;82.47;99707.69;10377537;28;20531;-66
2023/11/06 07:43:25;;;;;;;1999.90;999.90;;;;;;;13.53;80.12;99707.69;10376716;28;20057;-66
2023/11/06 07:48:27;;;;;;;1999.90;999.90;;;;;;;13.52;79.80;99709.50;10377207;28;20079;-65
2023/11/06 07:53:30;;;;;;;1999.90;999.90;;;;;;;13.20;79.35;99720.97;10376975;28;20078;-66
2023/11/06 07:58:34;;;;;;;1999.90;999.90;;;;;;;14.41;76.45;99729.72;10377973;28;20096;-66
2023/11/06 08:03:36;;;;;;;1999.90;999.90;;;;;;;14.95;73.24;99724.00;10377712;28;20046;-65
2023/11/06 08:08:40;;;;;;;1999.90;999.90;;;;;;;16.05;66.00;99725.88;10377085;28;20461;-65
2023/11/06 08:13:44;;;;;;;1999.90;999.90;;;;;;;15.68;67.42;99741.75;10377381;28;20050;-65
2023/11/06 08:18:46;;;;;;;1999.90;999.90;;;;;;;17.28;65.67;99744.50;10377717;28;20085;-66
2023/11/06 08:23:49;;;;;;;1999.90;999.90;;;;;;;15.89;66.36;99754.75;10377003;28;20050;-66
2023/11/06 08:28:51;;;;;;;1999.90;999.90;;;;;;;16.94;66.28;99755.06;10375671;28;20066;-66
2023/11/06 08:33:53;;;;;;;1999.90;999.90;;;;;;;15.46;69.88;99762.25;10376657;28;20050;-66
2023/11/06 08:38:57;;;;;;;1999.90;999.90;;;;;;;16.96;64.40;99761.00;10375875;28;20532;-65
2023/11/06 08:44:00;;;;;;;1999.90;999.90;;;;;;;17.68;64.24;99769.50;10375772;28;20125;-66
2023/11/06 08:49:03;;;;;;;1999.90;999.90;;;;;;;17.45;66.16;99756.84;10376090;28;20054;-66
2023/11/06 08:54:06;;;;;;;1999.90;999.90;;;;;;;17.89;62.88;99773.63;10375314;28;20072;-66
2023/11/06 08:59:08;;;;;;;1999.90;999.90;;;;;;;16.42;67.03;99785.63;10374594;28;20058;-66
2023/11/06 09:04:12;;;;;;;1999.90;999.90;;;;;;;18.85;59.70;99775.75;10375526;28;20100;-66
2023/11/06 09:09:15;;;;;;;1999.90;999.90;;;;;;;16.71;65.13;99789.88;10374794;28;20115;-66
2023/11/06 09:14:17;;;;;;;1999.90;999.90;;;;;;;16.59;66.32;99778.69;10374691;28;20200;-66
2023/11/06 09:19:20;;;;;;;1999.90;999.90;;;;;;;16.45;66.92;99795.09;10373367;28;20068;-66
2023/11/06 09:24:22;;;;;;;1999.90;999.90;;;;;;;15.55;66.10;99808.88;10375050;28;20129;-67
2023/11/06 09:29:24;;;;;;;1999.90;999.90;;;;;;;16.76;67.86;99823.78;10374335;28;20129;-66
2023/11/06 09:34:28;;;;;;;1999.90;999.90;;;;;;;17.12;66.56;99814.03;10373721;28;20050;-66
2023/11/06 09:39:31;;;;;;;1999.90;999.90;;;;;;;16.82;64.82;99831.09;10373658;28;20061;-65
2023/11/06 09:44:34;;;;;;;1999.90;999.90;;;;;;;15.88;67.26;99843.63;10374506;28;20477;-65
2023/11/06 09:49:43;;;;;;;1999.90;999.90;;;;;;;14.74;71.04;99837.47;10374679;28;20053;-65
2023/11/06 09:54:47;;;;;;;1999.90;999.90;;;;;;;15.18;73.03;99853.66;10373932;28;20048;-66
2023/11/06 09:59:50;;;;;;;1999.90;999.90;;;;;;;15.64;69.19;99853.84;10356440;28;20136;-66
2023/11/06 10:04:52;;;;;;;1999.90;999.90;;;;;;;15.88;67.87;99861.28;10372476;28;20129;-62
2023/11/06 10:10:32;;;;;;;1999.90;999.90;;;;;;;16.42;67.22;99854.31;10373573;28;20560;-62
2023/11/06 10:15:35;;;;;;;1999.90;999.90;;;;;;;16.42;66.47;99870.19;10374780;28;20060;-62
2023/11/06 10:20:43;;;;;;;1999.90;999.90;;;;;;;15.18;69.69;99869.47;10372863;28;20057;-61
2023/11/06 10:25:46;;;;;;;1999.90;999.90;;;;;;;15.61;70.59;99879.53;10373421;28;20386;-62
2023/11/06 10:30:52;;;;;;;1999.90;999.90;;;;;;;14.95;69.89;99877.69;10373855;28;20053;-62
2023/11/06 10:35:55;;;;;;;1999.90;999.90;;;;;;;15.46;69.97;99882.78;10374392;28;20060;-62
2023/11/06 10:41:00;;;;;;;1999.90;999.90;;;;;;;15.82;69.41;99880.34;10380420;28;20104;-62
2023/11/06 10:46:07;;;;;;;1999.90;999.90;;;;;;;15.33;69.39;99883.06;10379540;28;20137;-62
2023/11/06 10:51:12;;;;;;;1999.90;999.90;;;;;;;16.59;65.15;99863.25;10380090;28;20420;-63
2023/11/06 10:56:15;;;;;;;1999.90;999.90;;;;;;;16.92;65.79;99874.19;10379307;28;20046;-63
2023/11/06 11:01:18;;;;;;;1999.90;999.90;;;;;;;18.62;62.10;99860.38;10379370;28;20053;-62
2023/11/06 11:06:20;;;;;;;1999.90;999.90;;;;;;;19.10;58.63;99852.66;10362345;28;20060;-62
2023/11/06 11:11:23;;;;;;;1999.90;999.90;;;;;;;17.74;59.22;99879.25;10379147;28;20485;-62
2023/11/06 11:16:39;;;;;;;1999.90;999.90;;;;;;;17.87;59.96;99882.34;10379055;28;20449;-62
2023/11/06 11:22:06;;;;;;;1999.90;999.90;;;;;;;16.93;64.17;99891.72;10379461;28;20053;-62
2023/11/06 11:27:11;;;;;;;1999.90;999.90;;;;;;;16.57;65.45;99893.47;10378724;28;20402;-62
2023/11/06 11:32:14;;;;;;;1999.90;999.90;;;;;;;15.97;63.81;99892.13;10378370;28;20096;-63
2023/11/06 11:37:29;;;;;;;1999.90;999.90;;;;;;;16.20;66.11;99894.38;10378196;28;20464;-62
2023/11/06 11:42:32;;;;;;;1999.90;999.90;;;;;;;16.79;64.73;99890.38;10378595;28;20128;-62
2023/11/06 11:47:49;;;;;;;1999.90;999.90;;;;;;;16.86;63.87;99890.63;10378174;28;20130;-62
2023/11/06 11:52:52;;;;;;;1999.90;999.90;;;;;;;15.98;68.23;99905.13;10378269;28;20128;-63
2023/11/06 11:58:01;;;;;;;1999.90;999.90;;;;;;;16.21;65.26;99894.22;10377505;28;20481;-62
2023/11/06 12:03:07;;;;;;;1999.90;999.90;;;;;;;16.43;65.70;99894.81;10377228;28;20046;-62
2023/11/06 12:08:21;;;;;;;1999.90;999.90;;;;;;;16.13;65.84;99902.03;10377297;28;20145;-62
2023/11/06 12:13:25;;;;;;;1999.90;999.90;;;;;;;16.34;65.70;99896.53;10360395;28;20049;-62
2023/11/06 12:18:27;;;;;;;1999.90;999.90;;;;;;;16.00;65.34;99897.06;10377219;28;20512;-62
2023/11/06 12:23:31;;;;;;;1999.90;999.90;;;;;;;16.13;65.93;99910.78;10375832;28;20096;-62
2023/11/06 12:28:34;;;;;;;1999.90;999.90;;;;;;;16.20;65.40;99908.38;10375477;28;20054;-62
2023/11/06 12:33:36;;;;;;;1999.90;999.90;;;;;;;16.34;65.81;99909.75;10375566;28;20054;-62
2023/11/06 12:38:40;;;;;;;1999.90;999.90;;;;;;;16.53;65.05;99911.44;10376633;28;20084;-63
2023/11/06 12:43:43;;;;;;;1999.90;999.90;;;;;;;16.41;64.23;99897.59;10375822;28;20409;-62
2023/11/06 12:48:46;;;;;;;1999.90;999.90;;;;;;;16.72;64.08;99907.81;10375582;28;20077;-62
2023/11/06 12:53:49;;;;;;;1999.90;999.90;;;;;;;16.36;66.16;99910.41;10375514;28;20056;-62
2023/11/06 12:58:54;;;;;;;1999.90;999.90;;;;;;;15.87;64.70;99912.41;10374054;28;20107;-62
2023/11/06 13:03:58;;;;;;;1999.90;999.90;;;;;;;16.45;65.28;99911.34;10375682;28;20046;-62
2023/11/06 13:09:01;;;;;;;1999.90;999.90;;;;;;;15.79;65.46;99916.59;10374827;28;20085;-62
2023/11/06 13:14:06;;;;;;;1999.90;999.90;;;;;;;15.55;69.74;99950.50;10374784;28;20133;-62
2023/11/06 13:19:12;;;;;;;1999.90;999.90;;;;;;;15.16;75.50;99947.88;10375321;28;20132;-62
2023/11/06 13:24:16;;;;;;;1999.90;999.90;;;;;;;15.06;76.96;99937.31;10375085;28;20046;-62
2023/11/06 13:29:19;;;;;;;1999.90;999.90;;;;;;;15.55;77.10;99946.06;10375026;28;20057;-62
2023/11/06 13:34:22;;;;;;;1999.90;999.90;;;;;;;14.81;78.05;99954.50;10374945;28;20050;-62
2023/11/06 13:39:26;;;;;;;1999.90;999.90;;;;;;;15.85;76.29;99948.69;10374832;28;20078;-62
2023/11/06 13:44:30;;;;;;;1999.90;999.90;;;;;;;15.26;75.86;99953.16;10373554;28;20085;-62
2023/11/06 13:49:33;;;;;;;1999.90;999.90;;;;;;;15.69;74.27;99958.00;10373550;28;20050;-63
2023/11/06 13:54:38;;;;;;;1999.90;999.90;;;;;;;15.26;77.62;99955.81;10375091;28;20124;-62
2023/11/06 13:59:43;;;;;;;1999.90;999.90;;;;;;;15.63;77.31;99963.00;10373907;28;20492;-62
2023/11/06 14:04:52;;;;;;;1999.90;999.90;;;;;;;16.03;74.66;99965.44;10373732;28;20413;-62
2023/11/06 14:09:56;;;;;;;1999.90;999.90;;;;;;;15.15;75.78;99973.44;10375457;28;20054;-63
2023/11/06 14:14:58;;;;;;;1999.90;999.90;;;;;;;15.84;76.10;99971.59;10382128;28;20096;-63
2023/11/06 14:20:00;;;;;;;1999.90;999.90;;;;;;;15.19;78.55;99974.81;10389475;22;20046;-64
2023/11/06 14:25:04;;;;;;;1999.90;999.90;;;;;;;15.63;75.85;99970.91;10381048;28;20050;-64
2023/11/06 14:30:08;;;;;;;1999.90;999.90;;;;;;;15.27;77.40;99965.41;10380947;28;20081;-64
2023/11/06 14:35:11;;;;;;;1999.90;999.90;;;;;;;15.05;77.75;99976.03;10381386;28;20060;-64
2023/11/06 14:40:17;;;;;;;1999.90;999.90;;;;;;;15.29;75.71;99974.81;10379405;28;20579;-64
2023/11/06 14:45:20;;;;;;;1999.90;999.90;;;;;;;15.22;77.86;99973.72;10379271;28;20519;-64
2023/11/06 14:50:22;;;;;;;1999.90;999.90;;;;;;;14.23;81.38;99989.38;10380140;28;20050;-64
2023/11/06 14:55:27;;;;;;;1999.90;999.90;;;;;;;15.14;77.43;99990.19;10363696;28;20046;-64
2023/11/06 15:00:30;;;;;;;1999.90;999.90;;;;;;;14.63;78.06;99994.69;10379777;28;20057;-64
2023/11/06 15:05:34;;;;;;;1999.90;999.90;;;;;;;15.14;76.97;100000.75;10378982;28;20052;-64
2023/11/06 15:10:37;;;;;;;1999.90;999.90;;;;;;;14.91;77.65;100001.97;10379986;28;20114;-64
2023/11/06 15:15:39;;;;;;;1999.90;999.90;;;;;;;14.26;79.42;100012.81;10378020;28;20405;-64
2023/11/06 15:20:44;;;;;;;1999.90;999.90;;;;;;;14.43;79.03;100020.09;10378751;28;20054;-64
2023/11/06 15:25:46;;;;;;;1999.90;999.90;;;;;;;14.57;76.29;100023.31;10377586;28;20050;-64
2023/11/06 15:30:48;;;;;;;1999.90;999.90;;;;;;;14.44;76.75;100023.53;10378565;28;20053;-64
2023/11/06 15:35:51;;;;;;;1999.90;999.90;;;;;;;14.73;77.12;100026.34;10379025;28;20088;-64
2023/11/06 15:40:55;;;;;;;1999.90;999.90;;;;;;;15.11;74.53;100029.19;10378793;28;20049;-64
2023/11/06 15:46:03;;;;;;;1999.90;999.90;;;;;;;15.15;75.23;100030.59;10377410;28;20042;-64
2023/11/06 15:51:08;;;;;;;1999.90;999.90;;;;;;;14.72;75.15;100044.91;10378423;28;20085;-64
2023/11/06 15:56:12;;;;;;;1999.90;999.90;;;;;;;14.50;76.75;100038.81;10377562;28;20393;-64
2023/11/06 16:01:18;;;;;;;1999.90;999.90;;;;;;;14.51;77.20;100040.50;10378068;28;20042;-64
2023/11/06 16:06:21;;;;;;;1999.90;999.90;;;;;;;14.33;77.19;100055.25;10375965;28;20132;-64
2023/11/06 16:11:26;;;;;;;1999.90;999.90;;;;;;;14.27;77.85;100065.34;10377623;28;20052;-64
2023/11/06 16:16:30;;;;;;;1999.90;999.90;;;;;;;14.24;77.55;100065.59;10359757;28;20133;-64
2023/11/06 16:21:36;;;;;;;1999.90;999.90;;;;;;;14.71;75.66;100073.06;10376590;28;20389;-64
2023/11/06 16:26:39;;;;;;;1999.90;999.90;;;;;;;14.94;74.36;100076.31;10377106;28;20054;-64
2023/11/06 16:31:46;;;;;;;1999.90;999.90;;;;;;;14.72;76.97;100085.25;10376884;28;20107;-64
2023/11/06 16:36:48;;;;;;;1999.90;999.90;;;;;;;13.91;78.69;100091.13;10374578;28;20049;-64
2023/11/06 16:41:50;;;;;;;1999.90;999.90;;;;;;;14.11;77.72;100097.38;10376530;28;20132;-64
2023/11/06 16:46:53;;;;;;;1999.90;999.90;;;;;;;14.49;77.00;100095.94;10375660;28;20057;-64
2023/11/06 16:51:56;;;;;;;1999.90;999.90;;;;;;;14.21;77.86;100112.41;10375018;28;20046;-64
2023/11/06 16:56:59;;;;;;;1999.90;999.90;;;;;;;13.83;79.86;100116.41;10375376;28;20160;-64
2023/11/06 17:02:01;;;;;;;1999.90;999.90;;;;;;;14.18;78.82;100124.00;10375251;28;20050;-64
2023/11/06 17:07:04;;;;;;;1999.90;999.90;;;;;;;13.50;81.22;100136.56;10375013;28;20564;-64
2023/11/06 17:12:06;;;;;;;1999.90;999.90;;;;;;;13.85;78.81;100138.16;10358347;28;20129;-64
2023/11/06 17:17:08;;;;;;;1999.90;999.90;;;;;;;14.01;79.49;100151.72;10374209;28;20054;-64
2023/11/06 17:22:14;;;;;;;1999.90;999.90;;;;;;;13.70;81.97;100150.75;10374403;28;20501;-64
2023/11/06 17:27:18;;;;;;;1999.90;999.90;;;;;;;13.91;79.28;100163.97;10375086;28;20049;-64
2023/11/06 17:32:20;;;;;;;1999.90;999.90;;;;;;;13.99;79.14;100179.97;10374333;28;20444;-64
2023/11/06 17:37:23;;;;;;;1999.90;999.90;;;;;;;14.09;78.55;100170.38;10374703;28;20050;-64
2023/11/06 17:42:25;;;;;;;1999.90;999.90;;;;;;;13.67;80.09;100180.78;10374526;28;20543;-64
2023/11/06 17:47:29;;;;;;;1999.90;999.90;;;;;;;14.27;76.66;100177.69;10380939;28;20129;-64
2023/11/06 17:52:32;;;;;;;1999.90;999.90;;;;;;;13.66;80.38;100186.16;10383021;28;20046;-64
2023/11/06 17:57:34;;;;;;;1999.90;999.90;;;;;;;13.77;79.26;100182.66;10381658;28;20050;-64
2023/11/06 18:02:37;;;;;;;1999.90;999.90;;;;;;;14.01;77.81;100198.28;10381775;28;20076;-64
2023/11/06 18:07:40;;;;;;;1999.90;999.90;;;;;;;13.79;78.46;100196.56;10381813;28;20489;-64
2023/11/06 18:12:43;;;;;;;1999.90;999.90;;;;;;;13.42;80.62;100196.84;10380509;28;20512;-64
2023/11/06 18:17:46;;;;;;;1999.90;999.90;;;;;;;13.57;80.60;100217.50;10382080;28;20060;-64
2023/11/06 18:22:48;;;;;;;1999.90;999.90;;;;;;;13.68;81.75;100211.38;10381592;28;20100;-64
2023/11/06 18:27:51;;;;;;;1999.90;999.90;;;;;;;13.40;81.89;100219.78;10381676;28;20056;-64
2023/11/06 18:32:53;;;;;;;1999.90;999.90;;;;;;;13.60;81.62;100228.72;10381090;28;20046;-64
2023/11/06 18:37:56;;;;;;;1999.90;999.90;;;;;;;13.43;82.61;100232.69;10380111;28;20050;-64
2023/11/06 18:42:58;;;;;;;1999.90;999.90;;;;;;;13.57;81.21;100229.81;10379144;28;20049;-64
2023/11/06 18:48:01;;;;;;;1999.90;999.90;;;;;;;13.17;81.60;100238.97;10380303;28;20405;-64
2023/11/06 18:53:08;;;;;;;1999.90;999.90;;;;;;;13.57;80.86;100248.25;10380244;28;20452;-64
2023/11/06 18:58:11;;;;;;;1999.90;999.90;;;;;;;13.36;80.93;100258.63;10379499;28;20057;-64
2023/11/06 19:03:14;;;;;;;1999.90;999.90;;;;;;;13.10;80.97;100266.72;10380650;28;20081;-64
2023/11/06 19:08:16;;;;;;;1999.90;999.90;;;;;;;13.64;79.99;100259.94;10380154;28;20100;-64
2023/11/06 19:13:19;;;;;;;1999.90;999.90;;;;;;;13.12;82.09;100264.78;10379880;28;20049;-64
2023/11/06 19:18:21;;;;;;;1999.90;999.90;;;;;;;13.06;83.84;100270.50;10379785;28;20057;-64
2023/11/06 19:23:24;;;;;;;1999.90;999.90;;;;;;;13.17;83.34;100272.34;10379003;28;20062;-64
2023/11/06 19:28:26;;;;;;;1999.90;999.90;;;;;;;13.19;83.45;100283.56;10378734;28;20464;-64
2023/11/06 19:33:29;;;;;;;1999.90;999.90;;;;;;;13.26;82.68;100281.28;10379111;28;20121;-64
2023/11/06 19:38:32;;;;;;;1999.90;999.90;;;;;;;13.37;81.13;100294.50;10378488;28;20092;-64
2023/11/06 19:43:37;;;;;;;1999.90;999.90;;;;;;;13.24;82.25;100297.19;10378673;28;20046;-64
2023/11/06 19:48:42;;;;;;;1999.90;999.90;;;;;;;13.33;80.95;100300.94;10378519;28;20053;-64
2023/11/06 19:53:44;;;;;;;1999.90;999.90;;;;;;;13.54;79.94;100295.81;10377748;28;20555;-64
2023/11/06 19:58:47;;;;;;;1999.90;999.90;;;;;;;13.11;82.84;100306.97;10377037;28;20073;-64
2023/11/06 20:03:49;;;;;;;1999.90;999.90;;;;;;;12.75;84.54;100314.03;10377824;28;20046;-64
2023/11/06 20:08:52;;;;;;;1999.90;999.90;;;;;;;13.16;82.44;100318.81;10376949;28;20060;-64
2023/11/06 20:13:55;;;;;;;1999.90;999.90;;;;;;;12.73;82.18;100326.44;10376332;28;20042;-64
2023/11/06 20:18:57;;;;;;;1999.90;999.90;;;;;;;12.81;83.49;100327.53;10376755;28;20493;-64
2023/11/06 20:24:00;;;;;;;1999.90;999.90;;;;;;;12.66;84.52;100338.34;10376897;28;20057;-64
2023/11/06 20:29:04;;;;;;;1999.90;999.90;;;;;;;12.65;86.39;100337.50;10376345;28;20104;-64
2023/11/06 20:34:06;;;;;;;1999.90;999.90;;;;;;;12.92;83.04;100342.50;10376229;28;20404;-64
2023/11/06 20:39:09;;;;;;;1999.90;999.90;;;;;;;13.22;82.48;100349.03;10375957;28;20436;-64
2023/11/06 20:44:12;;;;;;;1999.90;999.90;;;;;;;13.04;81.82;100345.16;10376410;28;20060;-64
2023/11/06 20:49:14;;;;;;;1999.90;999.90;;;;;;;13.15;82.44;100353.09;10374499;28;20440;-64
2023/11/06 20:54:17;;;;;;;1999.90;999.90;;;;;;;12.90;81.78;100352.28;10375512;28;20379;-64
2023/11/06 20:59:19;;;;;;;1999.90;999.90;;;;;;;12.91;83.16;100364.50;10375933;28;20050;-64
2023/11/06 21:04:22;;;;;;;1999.90;999.90;;;;;;;12.88;84.06;100374.34;10375759;28;20049;-64
2023/11/06 21:09:24;;;;;;;1999.90;999.90;;;;;;;13.17;83.65;100372.22;10374959;28;20512;-64
2023/11/06 21:14:27;;;;;;;1999.90;999.90;;;;;;;12.52;86.19;100384.81;10375410;28;20046;-64
2023/11/06 21:19:29;;;;;;;1999.90;999.90;;;;;;;12.99;83.27;100377.03;10374100;28;20049;-64
2023/11/06 21:24:32;;;;;;;1999.90;999.90;;;;;;;12.96;81.98;100375.50;10374379;28;20116;-64
2023/11/06 21:29:34;;;;;;;1999.90;999.90;;;;;;;12.89;83.38;100391.81;10374430;28;20481;-64
2023/11/06 21:34:36;;;;;;;1999.90;999.90;;;;;;;12.85;85.26;100390.38;10374973;28;20053;-64
2023/11/06 21:39:39;;;;;;;1999.90;999.90;;;;;;;13.13;82.61;100390.00;10373088;28;20133;-64
2023/11/06 21:44:41;;;;;;;1999.90;999.90;;;;;;;12.93;85.98;100394.13;10374014;28;20405;-64
2023/11/06 21:49:44;;;;;;;1999.90;999.90;;;;;;;12.68;87.35;100400.31;10372909;28;20504;-64
2023/11/06 21:54:46;;;;;;;1999.90;999.90;;;;;;;12.98;84.87;100401.66;10375059;28;20070;-64
2023/11/06 21:59:56;;;;;;;1999.90;999.90;;;;;;;13.04;82.82;100385.41;10373375;28;20056;-64
2023/11/06 22:04:58;;;;;;;1999.90;999.90;;;;;;;12.62;85.64;100400.75;10374290;28;20050;-64
2023/11/06 22:10:13;;;;;;;1999.90;999.90;;;;;;;12.84;82.97;100400.03;10373676;28;20123;-64